sensor_id;sensor_type;location;lat;lon;timestamp;P1;durP1;ratioP1;P2;durP2;ratioP2
25913;SDS011;13718;50.922;5.346;2023-10-08T00:00:48;14.95;;;6.25;;
25913;SDS011;13718;50.922;5.346;2023-10-08T00:03:14;11.98;;;5.25;;
25913;SDS011;13718;50.922;5.346;2023-10-08T00:05:45;10.32;;;5.15;;
25913;SDS011;13718;50.922;5.346;2023-10-08T00:08:11;11.60;;;5.30;;
25913;SDS011;13718;50.922;5.346;2023-10-08T00:10:38;15.18;;;5.20;;
25913;SDS011;13718;50.922;5.346;2023-10-08T00:13:08;12.30;;;4.85;;
25913;SDS011;13718;50.922;5.346;2023-10-08T00:15:35;11.55;;;5.10;;
25913;SDS011;13718;50.922;5.346;2023-10-08T00:18:02;12.18;;;5.43;;
25913;SDS011;13718;50.922;5.346;2023-10-08T00:20:29;16.05;;;5.20;;
25913;SDS011;13718;50.922;5.346;2023-10-08T00:23:03;11.05;;;5.18;;
25913;SDS011;13718;50.922;5.346;2023-10-08T00:25:32;11.25;;;5.32;;
25913;SDS011;13718;50.922;5.346;2023-10-08T00:27:59;11.40;;;4.97;;
25913;SDS011;13718;50.922;5.346;2023-10-08T00:30:26;10.88;;;5.20;;
25913;SDS011;13718;50.922;5.346;2023-10-08T00:32:52;10.90;;;4.88;;
25913;SDS011;13718;50.922;5.346;2023-10-08T00:35:18;10.20;;;5.15;;
25913;SDS011;13718;50.922;5.346;2023-10-08T00:37:45;12.23;;;5.60;;
25913;SDS011;13718;50.922;5.346;2023-10-08T00:40:13;12.15;;;5.07;;
25913;SDS011;13718;50.922;5.346;2023-10-08T00:42:44;10.60;;;5.28;;
25913;SDS011;13718;50.922;5.346;2023-10-08T00:45:11;12.20;;;4.85;;
25913;SDS011;13718;50.922;5.346;2023-10-08T00:47:41;13.52;;;5.55;;
25913;SDS011;13718;50.922;5.346;2023-10-08T00:50:10;13.13;;;5.28;;
25913;SDS011;13718;50.922;5.346;2023-10-08T00:52:45;10.05;;;5.22;;
25913;SDS011;13718;50.922;5.346;2023-10-08T00:55:34;11.68;;;4.97;;
25913;SDS011;13718;50.922;5.346;2023-10-08T00:58:00;10.60;;;5.15;;
25913;SDS011;13718;50.922;5.346;2023-10-08T01:00:37;10.57;;;5.15;;
25913;SDS011;13718;50.922;5.346;2023-10-08T01:03:06;12.98;;;5.57;;
25913;SDS011;13718;50.922;5.346;2023-10-08T01:05:40;13.45;;;5.03;;
25913;SDS011;13718;50.922;5.346;2023-10-08T01:08:13;9.93;;;4.63;;
25913;SDS011;13718;50.922;5.346;2023-10-08T01:10:43;10.77;;;4.22;;
25913;SDS011;13718;50.922;5.346;2023-10-08T01:13:12;14.70;;;4.97;;
25913;SDS011;13718;50.922;5.346;2023-10-08T01:15:42;11.73;;;4.45;;
25913;SDS011;13718;50.922;5.346;2023-10-08T01:18:10;11.10;;;4.82;;
25913;SDS011;13718;50.922;5.346;2023-10-08T01:20:43;8.60;;;4.53;;
25913;SDS011;13718;50.922;5.346;2023-10-08T01:23:12;13.50;;;5.28;;
25913;SDS011;13718;50.922;5.346;2023-10-08T01:25:48;11.43;;;4.82;;
25913;SDS011;13718;50.922;5.346;2023-10-08T01:28:17;14.27;;;4.45;;
25913;SDS011;13718;50.922;5.346;2023-10-08T01:30:57;9.75;;;4.43;;
25913;SDS011;13718;50.922;5.346;2023-10-08T01:33:25;10.80;;;5.03;;
25913;SDS011;13718;50.922;5.346;2023-10-08T01:36:11;12.77;;;5.15;;
25913;SDS011;13718;50.922;5.346;2023-10-08T01:38:38;11.60;;;4.95;;
25913;SDS011;13718;50.922;5.346;2023-10-08T01:41:04;11.57;;;5.07;;
25913;SDS011;13718;50.922;5.346;2023-10-08T01:43:43;11.80;;;5.03;;
25913;SDS011;13718;50.922;5.346;2023-10-08T01:46:09;15.10;;;5.63;;
25913;SDS011;13718;50.922;5.346;2023-10-08T01:48:37;14.90;;;5.25;;
25913;SDS011;13718;50.922;5.346;2023-10-08T01:51:07;11.10;;;5.70;;
25913;SDS011;13718;50.922;5.346;2023-10-08T01:53:39;12.57;;;5.47;;
25913;SDS011;13718;50.922;5.346;2023-10-08T01:56:06;13.80;;;5.22;;
25913;SDS011;13718;50.922;5.346;2023-10-08T01:58:31;13.68;;;5.78;;
25913;SDS011;13718;50.922;5.346;2023-10-08T02:01:00;14.07;;;5.15;;
25913;SDS011;13718;50.922;5.346;2023-10-08T02:03:26;11.95;;;4.97;;
25913;SDS011;13718;50.922;5.346;2023-10-08T02:05:55;13.27;;;5.45;;
25913;SDS011;13718;50.922;5.346;2023-10-08T02:08:24;11.75;;;4.63;;
25913;SDS011;13718;50.922;5.346;2023-10-08T02:10:51;10.60;;;4.65;;
25913;SDS011;13718;50.922;5.346;2023-10-08T02:13:17;14.20;;;5.18;;
25913;SDS011;13718;50.922;5.346;2023-10-08T02:15:44;16.23;;;5.70;;
25913;SDS011;13718;50.922;5.346;2023-10-08T02:18:12;12.32;;;5.07;;
25913;SDS011;13718;50.922;5.346;2023-10-08T02:20:38;10.90;;;4.80;;
25913;SDS011;13718;50.922;5.346;2023-10-08T02:23:04;10.60;;;4.95;;
25913;SDS011;13718;50.922;5.346;2023-10-08T02:25:31;12.30;;;4.68;;
25913;SDS011;13718;50.922;5.346;2023-10-08T02:27:56;15.10;;;5.10;;
25913;SDS011;13718;50.922;5.346;2023-10-08T02:30:22;11.18;;;4.35;;
25913;SDS011;13718;50.922;5.346;2023-10-08T02:32:48;12.98;;;5.20;;
25913;SDS011;13718;50.922;5.346;2023-10-08T02:35:14;11.45;;;4.63;;
25913;SDS011;13718;50.922;5.346;2023-10-08T02:37:40;10.27;;;4.40;;
25913;SDS011;13718;50.922;5.346;2023-10-08T02:40:09;11.88;;;4.68;;
25913;SDS011;13718;50.922;5.346;2023-10-08T02:42:51;9.02;;;4.30;;
25913;SDS011;13718;50.922;5.346;2023-10-08T02:45:17;13.15;;;4.47;;
25913;SDS011;13718;50.922;5.346;2023-10-08T02:47:43;12.93;;;4.40;;
25913;SDS011;13718;50.922;5.346;2023-10-08T02:50:12;9.35;;;3.97;;
25913;SDS011;13718;50.922;5.346;2023-10-08T02:52:41;12.48;;;4.63;;
25913;SDS011;13718;50.922;5.346;2023-10-08T02:55:07;15.02;;;4.72;;
25913;SDS011;13718;50.922;5.346;2023-10-08T02:57:43;12.27;;;4.68;;
25913;SDS011;13718;50.922;5.346;2023-10-08T03:00:09;12.45;;;5.03;;
25913;SDS011;13718;50.922;5.346;2023-10-08T03:02:38;12.13;;;4.60;;
25913;SDS011;13718;50.922;5.346;2023-10-08T03:05:04;15.68;;;4.68;;
25913;SDS011;13718;50.922;5.346;2023-10-08T03:07:33;13.38;;;5.03;;
25913;SDS011;13718;50.922;5.346;2023-10-08T03:10:00;11.77;;;5.28;;
25913;SDS011;13718;50.922;5.346;2023-10-08T03:12:31;10.57;;;4.45;;
25913;SDS011;13718;50.922;5.346;2023-10-08T03:15:00;9.70;;;4.25;;
25913;SDS011;13718;50.922;5.346;2023-10-08T03:17:27;8.88;;;4.47;;
25913;SDS011;13718;50.922;5.346;2023-10-08T03:19:54;12.43;;;4.80;;
25913;SDS011;13718;50.922;5.346;2023-10-08T03:22:27;13.20;;;4.20;;
25913;SDS011;13718;50.922;5.346;2023-10-08T03:24:59;10.23;;;4.47;;
25913;SDS011;13718;50.922;5.346;2023-10-08T03:27:40;12.30;;;4.63;;
25913;SDS011;13718;50.922;5.346;2023-10-08T03:30:07;9.55;;;4.55;;
25913;SDS011;13718;50.922;5.346;2023-10-08T03:32:39;9.60;;;4.38;;
25913;SDS011;13718;50.922;5.346;2023-10-08T03:35:07;10.10;;;5.00;;
25913;SDS011;13718;50.922;5.346;2023-10-08T03:37:35;10.75;;;4.50;;
25913;SDS011;13718;50.922;5.346;2023-10-08T03:40:06;9.77;;;4.28;;
25913;SDS011;13718;50.922;5.346;2023-10-08T03:42:51;11.35;;;4.97;;
25913;SDS011;13718;50.922;5.346;2023-10-08T03:45:16;12.40;;;4.55;;
25913;SDS011;13718;50.922;5.346;2023-10-08T03:48:02;11.02;;;4.20;;
25913;SDS011;13718;50.922;5.346;2023-10-08T03:50:31;11.85;;;4.75;;
25913;SDS011;13718;50.922;5.346;2023-10-08T03:53:07;14.32;;;5.47;;
25913;SDS011;13718;50.922;5.346;2023-10-08T03:55:37;9.40;;;4.40;;
25913;SDS011;13718;50.922;5.346;2023-10-08T03:58:08;13.07;;;4.65;;
25913;SDS011;13718;50.922;5.346;2023-10-08T04:00:55;11.15;;;4.30;;
25913;SDS011;13718;50.922;5.346;2023-10-08T04:03:43;12.27;;;4.45;;
25913;SDS011;13718;50.922;5.346;2023-10-08T04:06:24;10.90;;;4.80;;
25913;SDS011;13718;50.922;5.346;2023-10-08T04:09:00;10.18;;;4.47;;
25913;SDS011;13718;50.922;5.346;2023-10-08T04:11:42;14.48;;;4.55;;
25913;SDS011;13718;50.922;5.346;2023-10-08T04:14:20;13.75;;;4.47;;
25913;SDS011;13718;50.922;5.346;2023-10-08T04:16:48;12.43;;;4.88;;
25913;SDS011;13718;50.922;5.346;2023-10-08T04:19:18;11.32;;;4.25;;
25913;SDS011;13718;50.922;5.346;2023-10-08T04:21:45;12.75;;;4.63;;
25913;SDS011;13718;50.922;5.346;2023-10-08T04:24:18;9.93;;;4.75;;
25913;SDS011;13718;50.922;5.346;2023-10-08T04:26:53;14.15;;;4.90;;
25913;SDS011;13718;50.922;5.346;2023-10-08T04:29:27;11.32;;;4.60;;
25913;SDS011;13718;50.922;5.346;2023-10-08T04:31:57;11.82;;;4.85;;
25913;SDS011;13718;50.922;5.346;2023-10-08T04:34:30;18.27;;;4.72;;
25913;SDS011;13718;50.922;5.346;2023-10-08T04:36:58;10.30;;;5.05;;
25913;SDS011;13718;50.922;5.346;2023-10-08T04:39:26;13.00;;;5.30;;
25913;SDS011;13718;50.922;5.346;2023-10-08T04:41:59;12.43;;;5.05;;
25913;SDS011;13718;50.922;5.346;2023-10-08T04:44:31;10.52;;;4.70;;
25913;SDS011;13718;50.922;5.346;2023-10-08T04:46:57;12.95;;;4.93;;
25913;SDS011;13718;50.922;5.346;2023-10-08T04:49:29;11.98;;;4.97;;
25913;SDS011;13718;50.922;5.346;2023-10-08T04:52:02;11.10;;;4.85;;
25913;SDS011;13718;50.922;5.346;2023-10-08T04:54:33;12.35;;;3.95;;
25913;SDS011;13718;50.922;5.346;2023-10-08T04:57:05;18.77;;;5.93;;
25913;SDS011;13718;50.922;5.346;2023-10-08T04:59:40;9.95;;;4.68;;
25913;SDS011;13718;50.922;5.346;2023-10-08T05:02:09;13.90;;;5.22;;
25913;SDS011;13718;50.922;5.346;2023-10-08T05:04:53;13.55;;;5.25;;
25913;SDS011;13718;50.922;5.346;2023-10-08T05:07:41;12.85;;;5.55;;
25913;SDS011;13718;50.922;5.346;2023-10-08T05:10:10;14.35;;;5.47;;
25913;SDS011;13718;50.922;5.346;2023-10-08T05:12:56;15.10;;;5.80;;
25913;SDS011;13718;50.922;5.346;2023-10-08T05:15:28;12.55;;;5.65;;
25913;SDS011;13718;50.922;5.346;2023-10-08T05:18:12;12.63;;;5.28;;
25913;SDS011;13718;50.922;5.346;2023-10-08T05:20:43;13.25;;;5.30;;
25913;SDS011;13718;50.922;5.346;2023-10-08T05:23:30;16.40;;;5.05;;
25913;SDS011;13718;50.922;5.346;2023-10-08T05:25:56;13.45;;;5.13;;
25913;SDS011;13718;50.922;5.346;2023-10-08T05:28:32;12.30;;;4.80;;
25913;SDS011;13718;50.922;5.346;2023-10-08T05:31:11;14.60;;;4.88;;
25913;SDS011;13718;50.922;5.346;2023-10-08T05:33:41;13.57;;;5.03;;
25913;SDS011;13718;50.922;5.346;2023-10-08T05:36:40;21.17;;;6.07;;
25913;SDS011;13718;50.922;5.346;2023-10-08T05:39:26;10.48;;;4.78;;
25913;SDS011;13718;50.922;5.346;2023-10-08T05:42:05;12.48;;;5.07;;
25913;SDS011;13718;50.922;5.346;2023-10-08T05:44:56;16.13;;;3.65;;
25913;SDS011;13718;50.922;5.346;2023-10-08T05:47:31;10.60;;;3.40;;
25913;SDS011;13718;50.922;5.346;2023-10-08T05:49:57;14.88;;;3.35;;
25913;SDS011;13718;50.922;5.346;2023-10-08T05:52:41;10.43;;;3.60;;
25913;SDS011;13718;50.922;5.346;2023-10-08T05:55:27;12.57;;;3.65;;
25913;SDS011;13718;50.922;5.346;2023-10-08T05:58:00;8.88;;;3.70;;
25913;SDS011;13718;50.922;5.346;2023-10-08T06:00:41;9.63;;;3.58;;
25913;SDS011;13718;50.922;5.346;2023-10-08T06:03:46;15.27;;;4.32;;
25913;SDS011;13718;50.922;5.346;2023-10-08T06:06:46;11.20;;;3.78;;
25913;SDS011;13718;50.922;5.346;2023-10-08T06:09:23;10.15;;;3.65;;
25913;SDS011;13718;50.922;5.346;2023-10-08T06:12:00;11.43;;;4.10;;
25913;SDS011;13718;50.922;5.346;2023-10-08T06:14:36;10.23;;;3.97;;
25913;SDS011;13718;50.922;5.346;2023-10-08T06:17:25;13.73;;;4.25;;
25913;SDS011;13718;50.922;5.346;2023-10-08T06:20:09;12.18;;;4.07;;
25913;SDS011;13718;50.922;5.346;2023-10-08T06:25:07;11.23;;;3.83;;
25913;SDS011;13718;50.922;5.346;2023-10-08T06:27:43;10.75;;;4.13;;
25913;SDS011;13718;50.922;5.346;2023-10-08T06:30:12;15.73;;;4.07;;
25913;SDS011;13718;50.922;5.346;2023-10-08T06:32:42;13.73;;;4.03;;
25913;SDS011;13718;50.922;5.346;2023-10-08T06:35:09;12.63;;;3.90;;
25913;SDS011;13718;50.922;5.346;2023-10-08T06:37:42;13.32;;;3.80;;
25913;SDS011;13718;50.922;5.346;2023-10-08T06:42:59;11.90;;;3.75;;
25913;SDS011;13718;50.922;5.346;2023-10-08T06:45:28;11.65;;;4.03;;
25913;SDS011;13718;50.922;5.346;2023-10-08T06:47:58;10.10;;;3.78;;
25913;SDS011;13718;50.922;5.346;2023-10-08T06:50:30;13.07;;;3.72;;
25913;SDS011;13718;50.922;5.346;2023-10-08T06:53:01;8.63;;;3.47;;
25913;SDS011;13718;50.922;5.346;2023-10-08T06:55:36;10.77;;;4.20;;
25913;SDS011;13718;50.922;5.346;2023-10-08T06:58:03;9.35;;;3.80;;
25913;SDS011;13718;50.922;5.346;2023-10-08T07:00:33;14.35;;;3.85;;
25913;SDS011;13718;50.922;5.346;2023-10-08T07:03:08;15.82;;;3.83;;
25913;SDS011;13718;50.922;5.346;2023-10-08T07:05:40;9.55;;;4.05;;
25913;SDS011;13718;50.922;5.346;2023-10-08T07:08:28;10.95;;;4.20;;
25913;SDS011;13718;50.922;5.346;2023-10-08T07:10:56;11.88;;;5.30;;
25913;SDS011;13718;50.922;5.346;2023-10-08T07:13:24;15.32;;;4.38;;
25913;SDS011;13718;50.922;5.346;2023-10-08T07:15:49;11.05;;;4.55;;
25913;SDS011;13718;50.922;5.346;2023-10-08T07:18:16;13.77;;;6.22;;
25913;SDS011;13718;50.922;5.346;2023-10-08T07:20:53;13.30;;;3.83;;
25913;SDS011;13718;50.922;5.346;2023-10-08T07:23:23;13.13;;;3.83;;
25913;SDS011;13718;50.922;5.346;2023-10-08T07:25:57;11.70;;;3.80;;
25913;SDS011;13718;50.922;5.346;2023-10-08T07:28:40;10.63;;;4.07;;
25913;SDS011;13718;50.922;5.346;2023-10-08T07:31:16;12.52;;;3.45;;
25913;SDS011;13718;50.922;5.346;2023-10-08T07:33:54;8.38;;;3.38;;
25913;SDS011;13718;50.922;5.346;2023-10-08T07:36:24;13.00;;;4.07;;
25913;SDS011;13718;50.922;5.346;2023-10-08T07:38:51;10.50;;;4.13;;
25913;SDS011;13718;50.922;5.346;2023-10-08T07:41:18;9.30;;;3.67;;
25913;SDS011;13718;50.922;5.346;2023-10-08T07:43:45;12.55;;;3.97;;
25913;SDS011;13718;50.922;5.346;2023-10-08T07:46:24;10.40;;;3.75;;
25913;SDS011;13718;50.922;5.346;2023-10-08T07:48:56;11.43;;;3.80;;
25913;SDS011;13718;50.922;5.346;2023-10-08T07:51:23;8.43;;;3.53;;
25913;SDS011;13718;50.922;5.346;2023-10-08T07:53:49;11.90;;;4.03;;
25913;SDS011;13718;50.922;5.346;2023-10-08T07:56:20;14.98;;;4.38;;
25913;SDS011;13718;50.922;5.346;2023-10-08T07:58:50;10.32;;;3.90;;
25913;SDS011;13718;50.922;5.346;2023-10-08T08:01:16;9.38;;;3.65;;
25913;SDS011;13718;50.922;5.346;2023-10-08T08:03:42;13.40;;;4.28;;
25913;SDS011;13718;50.922;5.346;2023-10-08T08:06:10;8.60;;;3.53;;
25913;SDS011;13718;50.922;5.346;2023-10-08T08:08:36;11.85;;;4.00;;
25913;SDS011;13718;50.922;5.346;2023-10-08T08:11:06;11.85;;;3.45;;
25913;SDS011;13718;50.922;5.346;2023-10-08T08:13:37;9.68;;;3.65;;
25913;SDS011;13718;50.922;5.346;2023-10-08T08:16:03;8.38;;;3.55;;
25913;SDS011;13718;50.922;5.346;2023-10-08T08:18:42;9.90;;;4.45;;
25913;SDS011;13718;50.922;5.346;2023-10-08T08:21:09;10.77;;;4.05;;
25913;SDS011;13718;50.922;5.346;2023-10-08T08:23:43;11.80;;;4.13;;
25913;SDS011;13718;50.922;5.346;2023-10-08T08:26:18;9.90;;;4.03;;
25913;SDS011;13718;50.922;5.346;2023-10-08T08:28:54;9.85;;;4.07;;
25913;SDS011;13718;50.922;5.346;2023-10-08T08:31:21;11.88;;;4.05;;
25913;SDS011;13718;50.922;5.346;2023-10-08T08:33:48;12.98;;;4.18;;
25913;SDS011;13718;50.922;5.346;2023-10-08T08:36:24;15.40;;;4.68;;
25913;SDS011;13718;50.922;5.346;2023-10-08T08:38:51;9.50;;;3.42;;
25913;SDS011;13718;50.922;5.346;2023-10-08T08:41:18;13.82;;;4.75;;
25913;SDS011;13718;50.922;5.346;2023-10-08T08:43:49;15.50;;;4.57;;
25913;SDS011;13718;50.922;5.346;2023-10-08T08:46:21;15.15;;;3.85;;
25913;SDS011;13718;50.922;5.346;2023-10-08T08:48:53;10.00;;;3.75;;
25913;SDS011;13718;50.922;5.346;2023-10-08T08:51:20;13.05;;;4.22;;
25913;SDS011;13718;50.922;5.346;2023-10-08T08:53:48;13.32;;;4.25;;
25913;SDS011;13718;50.922;5.346;2023-10-08T08:56:14;13.10;;;4.70;;
25913;SDS011;13718;50.922;5.346;2023-10-08T08:58:41;17.10;;;4.55;;
25913;SDS011;13718;50.922;5.346;2023-10-08T09:01:09;13.90;;;4.18;;
25913;SDS011;13718;50.922;5.346;2023-10-08T09:03:38;16.38;;;5.28;;
25913;SDS011;13718;50.922;5.346;2023-10-08T09:06:04;15.55;;;4.78;;
25913;SDS011;13718;50.922;5.346;2023-10-08T09:08:36;12.23;;;4.00;;
25913;SDS011;13718;50.922;5.346;2023-10-08T09:11:02;12.85;;;4.35;;
25913;SDS011;13718;50.922;5.346;2023-10-08T09:13:33;16.90;;;4.15;;
25913;SDS011;13718;50.922;5.346;2023-10-08T09:16:02;11.02;;;4.68;;
25913;SDS011;13718;50.922;5.346;2023-10-08T09:18:32;17.05;;;5.97;;
25913;SDS011;13718;50.922;5.346;2023-10-08T09:21:06;16.42;;;5.93;;
25913;SDS011;13718;50.922;5.346;2023-10-08T09:23:36;18.08;;;5.35;;
25913;SDS011;13718;50.922;5.346;2023-10-08T09:26:16;16.38;;;5.38;;
25913;SDS011;13718;50.922;5.346;2023-10-08T09:28:47;15.98;;;4.72;;
25913;SDS011;13718;50.922;5.346;2023-10-08T09:31:13;13.85;;;5.00;;
25913;SDS011;13718;50.922;5.346;2023-10-08T09:33:39;16.08;;;5.07;;
25913;SDS011;13718;50.922;5.346;2023-10-08T09:36:06;19.15;;;4.40;;
25913;SDS011;13718;50.922;5.346;2023-10-08T09:38:35;22.48;;;5.43;;
25913;SDS011;13718;50.922;5.346;2023-10-08T09:41:02;13.52;;;5.15;;
25913;SDS011;13718;50.922;5.346;2023-10-08T09:43:29;15.68;;;5.13;;
25913;SDS011;13718;50.922;5.346;2023-10-08T09:46:02;20.98;;;5.18;;
25913;SDS011;13718;50.922;5.346;2023-10-08T09:48:49;17.58;;;5.22;;
25913;SDS011;13718;50.922;5.346;2023-10-08T09:51:18;18.55;;;4.95;;
25913;SDS011;13718;50.922;5.346;2023-10-08T09:54:05;18.02;;;4.95;;
25913;SDS011;13718;50.922;5.346;2023-10-08T09:56:40;18.02;;;6.38;;
25913;SDS011;13718;50.922;5.346;2023-10-08T09:59:08;14.15;;;5.43;;
25913;SDS011;13718;50.922;5.346;2023-10-08T10:01:35;17.88;;;5.50;;
25913;SDS011;13718;50.922;5.346;2023-10-08T10:04:06;12.27;;;5.30;;
25913;SDS011;13718;50.922;5.346;2023-10-08T10:06:35;19.85;;;6.15;;
25913;SDS011;13718;50.922;5.346;2023-10-08T10:09:01;18.83;;;6.40;;
25913;SDS011;13718;50.922;5.346;2023-10-08T10:11:31;17.50;;;6.47;;
25913;SDS011;13718;50.922;5.346;2023-10-08T10:13:58;20.60;;;6.20;;
25913;SDS011;13718;50.922;5.346;2023-10-08T10:16:27;17.98;;;5.57;;
25913;SDS011;13718;50.922;5.346;2023-10-08T10:18:56;26.67;;;6.10;;
25913;SDS011;13718;50.922;5.346;2023-10-08T10:21:29;13.80;;;4.78;;
25913;SDS011;13718;50.922;5.346;2023-10-08T10:23:56;22.23;;;6.13;;
25913;SDS011;13718;50.922;5.346;2023-10-08T10:31:35;22.67;;;6.05;;
25913;SDS011;13718;50.922;5.346;2023-10-08T10:34:26;16.00;;;5.93;;
25913;SDS011;13718;50.922;5.346;2023-10-08T10:36:53;19.08;;;5.90;;
25913;SDS011;13718;50.922;5.346;2023-10-08T10:39:40;18.20;;;5.95;;
25913;SDS011;13718;50.922;5.346;2023-10-08T10:42:07;19.58;;;5.55;;
25913;SDS011;13718;50.922;5.346;2023-10-08T10:44:45;17.13;;;5.75;;
25913;SDS011;13718;50.922;5.346;2023-10-08T10:47:14;20.48;;;6.70;;
25913;SDS011;13718;50.922;5.346;2023-10-08T10:49:41;17.02;;;6.25;;
25913;SDS011;13718;50.922;5.346;2023-10-08T10:52:24;19.92;;;5.40;;
25913;SDS011;13718;50.922;5.346;2023-10-08T10:55:04;24.92;;;6.45;;
25913;SDS011;13718;50.922;5.346;2023-10-08T10:57:40;17.55;;;5.35;;
25913;SDS011;13718;50.922;5.346;2023-10-08T11:00:08;19.20;;;5.72;;
25913;SDS011;13718;50.922;5.346;2023-10-08T11:02:57;23.88;;;5.88;;
25913;SDS011;13718;50.922;5.346;2023-10-08T11:05:28;20.55;;;5.75;;
25913;SDS011;13718;50.922;5.346;2023-10-08T11:07:59;17.50;;;5.55;;
25913;SDS011;13718;50.922;5.346;2023-10-08T11:10:38;16.08;;;5.70;;
25913;SDS011;13718;50.922;5.346;2023-10-08T11:13:08;20.35;;;6.15;;
25913;SDS011;13718;50.922;5.346;2023-10-08T11:15:41;14.93;;;5.35;;
25913;SDS011;13718;50.922;5.346;2023-10-08T11:18:09;17.48;;;5.18;;
25913;SDS011;13718;50.922;5.346;2023-10-08T11:20:35;15.85;;;5.97;;
25913;SDS011;13718;50.922;5.346;2023-10-08T11:23:05;20.10;;;5.10;;
25913;SDS011;13718;50.922;5.346;2023-10-08T11:28:28;13.95;;;5.32;;
25913;SDS011;13718;50.922;5.346;2023-10-08T11:30:59;15.85;;;4.47;;
25913;SDS011;13718;50.922;5.346;2023-10-08T11:33:33;15.18;;;5.63;;
25913;SDS011;13718;50.922;5.346;2023-10-08T11:36:04;15.95;;;5.82;;
25913;SDS011;13718;50.922;5.346;2023-10-08T11:38:43;18.65;;;5.15;;
25913;SDS011;13718;50.922;5.346;2023-10-08T11:41:16;25.63;;;6.53;;
25913;SDS011;13718;50.922;5.346;2023-10-08T11:43:49;22.20;;;6.63;;
25913;SDS011;13718;50.922;5.346;2023-10-08T11:46:19;16.92;;;6.97;;
25913;SDS011;13718;50.922;5.346;2023-10-08T11:48:46;25.05;;;5.00;;
25913;SDS011;13718;50.922;5.346;2023-10-08T11:51:12;14.93;;;5.47;;
25913;SDS011;13718;50.922;5.346;2023-10-08T11:53:41;15.63;;;4.55;;
25913;SDS011;13718;50.922;5.346;2023-10-08T11:56:09;16.30;;;5.55;;
25913;SDS011;13718;50.922;5.346;2023-10-08T11:58:38;16.30;;;5.60;;
25913;SDS011;13718;50.922;5.346;2023-10-08T12:01:12;21.30;;;4.80;;
25913;SDS011;13718;50.922;5.346;2023-10-08T12:03:49;11.73;;;4.70;;
25913;SDS011;13718;50.922;5.346;2023-10-08T12:06:16;14.40;;;4.57;;
25913;SDS011;13718;50.922;5.346;2023-10-08T12:08:46;13.60;;;5.45;;
25913;SDS011;13718;50.922;5.346;2023-10-08T12:11:18;17.25;;;5.55;;
25913;SDS011;13718;50.922;5.346;2023-10-08T12:13:46;15.65;;;4.88;;
25913;SDS011;13718;50.922;5.346;2023-10-08T12:16:15;15.15;;;4.80;;
25913;SDS011;13718;50.922;5.346;2023-10-08T12:18:46;18.48;;;6.88;;
25913;SDS011;13718;50.922;5.346;2023-10-08T12:21:22;18.88;;;7.60;;
25913;SDS011;13718;50.922;5.346;2023-10-08T12:23:49;18.13;;;6.30;;
25913;SDS011;13718;50.922;5.346;2023-10-08T12:26:16;17.08;;;5.28;;
25913;SDS011;13718;50.922;5.346;2023-10-08T12:28:44;22.08;;;6.03;;
25913;SDS011;13718;50.922;5.346;2023-10-08T12:31:14;18.13;;;6.10;;
25913;SDS011;13718;50.922;5.346;2023-10-08T12:33:47;17.05;;;5.85;;
25913;SDS011;13718;50.922;5.346;2023-10-08T12:36:14;26.33;;;6.05;;
25913;SDS011;13718;50.922;5.346;2023-10-08T12:38:42;12.80;;;4.80;;
25913;SDS011;13718;50.922;5.346;2023-10-08T12:41:11;13.52;;;5.20;;
25913;SDS011;13718;50.922;5.346;2023-10-08T12:43:37;18.08;;;4.75;;
25913;SDS011;13718;50.922;5.346;2023-10-08T12:46:07;23.92;;;7.68;;
25913;SDS011;13718;50.922;5.346;2023-10-08T12:48:36;16.67;;;5.40;;
25913;SDS011;13718;50.922;5.346;2023-10-08T12:51:03;17.02;;;4.43;;
25913;SDS011;13718;50.922;5.346;2023-10-08T12:53:31;17.42;;;4.18;;
25913;SDS011;13718;50.922;5.346;2023-10-08T12:56:07;18.55;;;5.32;;
25913;SDS011;13718;50.922;5.346;2023-10-08T12:58:39;18.75;;;5.90;;
25913;SDS011;13718;50.922;5.346;2023-10-08T13:01:14;18.45;;;6.00;;
25913;SDS011;13718;50.922;5.346;2023-10-08T13:03:42;16.30;;;5.85;;
25913;SDS011;13718;50.922;5.346;2023-10-08T13:06:13;14.07;;;5.60;;
25913;SDS011;13718;50.922;5.346;2023-10-08T13:08:54;18.30;;;5.63;;
25913;SDS011;13718;50.922;5.346;2023-10-08T13:11:20;16.42;;;5.28;;
25913;SDS011;13718;50.922;5.346;2023-10-08T13:13:50;19.27;;;6.75;;
25913;SDS011;13718;50.922;5.346;2023-10-08T13:16:17;15.25;;;5.50;;
25913;SDS011;13718;50.922;5.346;2023-10-08T13:18:46;21.30;;;5.53;;
25913;SDS011;13718;50.922;5.346;2023-10-08T13:21:12;18.05;;;5.60;;
25913;SDS011;13718;50.922;5.346;2023-10-08T13:23:38;17.55;;;6.30;;
25913;SDS011;13718;50.922;5.346;2023-10-08T13:26:04;18.55;;;5.25;;
25913;SDS011;13718;50.922;5.346;2023-10-08T13:28:32;23.23;;;6.95;;
25913;SDS011;13718;50.922;5.346;2023-10-08T13:30:59;14.95;;;4.55;;
25913;SDS011;13718;50.922;5.346;2023-10-08T13:33:26;16.85;;;4.95;;
25913;SDS011;13718;50.922;5.346;2023-10-08T13:35:51;18.15;;;5.07;;
25913;SDS011;13718;50.922;5.346;2023-10-08T13:38:17;15.18;;;4.70;;
25913;SDS011;13718;50.922;5.346;2023-10-08T13:40:47;11.05;;;3.97;;
25913;SDS011;13718;50.922;5.346;2023-10-08T13:43:37;12.35;;;4.10;;
25913;SDS011;13718;50.922;5.346;2023-10-08T13:46:05;22.50;;;4.95;;
25913;SDS011;13718;50.922;5.346;2023-10-08T13:48:34;15.10;;;4.47;;
25913;SDS011;13718;50.922;5.346;2023-10-08T13:51:03;17.48;;;4.60;;
25913;SDS011;13718;50.922;5.346;2023-10-08T13:53:32;12.82;;;4.22;;
25913;SDS011;13718;50.922;5.346;2023-10-08T13:56:01;17.52;;;5.03;;
25913;SDS011;13718;50.922;5.346;2023-10-08T13:58:28;14.48;;;4.22;;
25913;SDS011;13718;50.922;5.346;2023-10-08T14:00:55;16.10;;;3.85;;
25913;SDS011;13718;50.922;5.346;2023-10-08T14:03:28;21.42;;;4.00;;
25913;SDS011;13718;50.922;5.346;2023-10-08T14:05:59;16.90;;;5.28;;
25913;SDS011;13718;50.922;5.346;2023-10-08T14:08:29;19.38;;;4.22;;
25913;SDS011;13718;50.922;5.346;2023-10-08T14:10:55;13.88;;;4.82;;
25913;SDS011;13718;50.922;5.346;2023-10-08T14:13:28;14.23;;;4.45;;
25913;SDS011;13718;50.922;5.346;2023-10-08T14:15:54;17.27;;;4.80;;
25913;SDS011;13718;50.922;5.346;2023-10-08T14:18:22;13.35;;;4.32;;
25913;SDS011;13718;50.922;5.346;2023-10-08T14:20:53;14.30;;;4.15;;
25913;SDS011;13718;50.922;5.346;2023-10-08T14:23:20;13.10;;;4.70;;
25913;SDS011;13718;50.922;5.346;2023-10-08T14:25:47;12.07;;;3.72;;
25913;SDS011;13718;50.922;5.346;2023-10-08T14:28:16;15.60;;;4.47;;
25913;SDS011;13718;50.922;5.346;2023-10-08T14:31:01;20.55;;;4.10;;
25913;SDS011;13718;50.922;5.346;2023-10-08T14:33:27;14.40;;;4.28;;
25913;SDS011;13718;50.922;5.346;2023-10-08T14:35:56;17.17;;;4.07;;
25913;SDS011;13718;50.922;5.346;2023-10-08T14:38:40;16.75;;;4.55;;
25913;SDS011;13718;50.922;5.346;2023-10-08T14:41:24;11.52;;;3.95;;
25913;SDS011;13718;50.922;5.346;2023-10-08T14:44:08;13.55;;;3.97;;
25913;SDS011;13718;50.922;5.346;2023-10-08T14:46:35;12.40;;;4.55;;
25913;SDS011;13718;50.922;5.346;2023-10-08T14:49:02;10.85;;;3.35;;
25913;SDS011;13718;50.922;5.346;2023-10-08T14:51:28;13.73;;;3.72;;
25913;SDS011;13718;50.922;5.346;2023-10-08T14:53:55;13.38;;;4.32;;
25913;SDS011;13718;50.922;5.346;2023-10-08T14:56:20;13.45;;;4.20;;
25913;SDS011;13718;50.922;5.346;2023-10-08T14:58:48;10.98;;;3.78;;
25913;SDS011;13718;50.922;5.346;2023-10-08T15:01:13;13.73;;;4.20;;
25913;SDS011;13718;50.922;5.346;2023-10-08T15:03:39;19.30;;;4.82;;
25913;SDS011;13718;50.922;5.346;2023-10-08T15:06:05;14.57;;;4.15;;
25913;SDS011;13718;50.922;5.346;2023-10-08T15:08:32;27.08;;;4.85;;
25913;SDS011;13718;50.922;5.346;2023-10-08T15:10:58;11.45;;;3.70;;
25913;SDS011;13718;50.922;5.346;2023-10-08T15:13:25;19.67;;;4.30;;